createdAt,value
2023-02-13T00:01:31.446Z,4.28
2023-02-13T00:04:03.156Z,4.53
2023-02-13T00:06:34.725Z,3.30
2023-02-13T00:09:07.413Z,3.67
2023-02-13T00:11:39.016Z,3.80
2023-02-13T00:14:10.721Z,3.30
2023-02-13T00:16:42.260Z,3.60
2023-02-13T00:19:13.838Z,3.20
2023-02-13T00:21:45.360Z,3.75
2023-02-13T00:24:16.905Z,3.53
2023-02-13T00:26:48.399Z,2.05
2023-02-13T00:29:19.979Z,2.65
2023-02-13T00:31:51.705Z,2.10
2023-02-13T00:34:23.261Z,2.20
2023-02-13T00:36:54.781Z,1.80
2023-02-13T00:39:26.749Z,2.78
2023-02-13T00:41:58.281Z,1.67
2023-02-13T00:44:30.160Z,1.73
2023-02-13T00:47:01.731Z,1.88
2023-02-13T00:49:33.775Z,1.63
2023-02-13T00:52:05.294Z,1.70
2023-02-13T00:54:37.324Z,1.90
2023-02-13T00:57:08.867Z,1.07
2023-02-13T00:59:40.652Z,1.27
2023-02-13T01:02:12.194Z,1.40
2023-02-13T01:04:44.037Z,1.10
2023-02-13T01:07:16.674Z,1.52
2023-02-13T01:09:48.480Z,0.88
2023-02-13T01:12:20.008Z,1.25
2023-02-13T01:14:52.853Z,1.08
2023-02-13T01:19:56.306Z,0.50
2023-02-13T01:22:27.876Z,1.23
2023-02-13T01:24:59.625Z,0.93
2023-02-13T01:27:31.841Z,0.65
2023-02-13T01:30:03.829Z,0.57
2023-02-13T01:32:35.397Z,0.88
2023-02-13T01:35:07.424Z,1.17
2023-02-13T01:37:39.490Z,0.50
2023-02-13T01:40:11.405Z,0.73
2023-02-13T01:42:42.977Z,1.03
2023-02-13T01:45:14.542Z,1.15
2023-02-13T01:47:46.060Z,0.90
2023-02-13T01:50:17.588Z,1.05
2023-02-13T01:52:49.094Z,1.17
2023-02-13T01:55:20.617Z,1.30
2023-02-13T01:57:52.237Z,1.00
2023-02-13T02:00:24.213Z,1.00
2023-02-13T02:02:55.771Z,0.80
2023-02-13T02:05:27.715Z,1.02
2023-02-13T02:07:59.246Z,1.00
2023-02-13T02:10:32.862Z,0.85
2023-02-13T02:13:04.399Z,1.02
2023-02-13T02:15:35.920Z,1.02
2023-02-13T02:18:07.777Z,1.10
2023-02-13T02:20:39.293Z,0.63
2023-02-13T02:23:11.181Z,0.90
2023-02-13T02:25:42.705Z,1.30
2023-02-13T02:28:14.255Z,2.08
2023-02-13T02:30:45.869Z,1.10
2023-02-13T02:33:17.448Z,0.70
2023-02-13T02:35:48.958Z,1.02
2023-02-13T02:38:20.493Z,1.70
2023-02-13T02:40:52.024Z,1.13
2023-02-13T02:43:23.912Z,0.65
2023-02-13T02:45:55.432Z,0.93
2023-02-13T02:48:46.117Z,1.08
2023-02-13T02:51:17.618Z,0.90
2023-02-13T02:53:49.429Z,1.13
2023-02-13T02:56:20.928Z,1.15
2023-02-13T02:59:11.443Z,1.23
2023-02-13T03:02:01.610Z,1.27
2023-02-13T03:04:52.014Z,1.10
2023-02-13T03:07:23.526Z,1.10
2023-02-13T03:10:13.740Z,1.75
2023-02-13T03:13:04.025Z,1.60
2023-02-13T03:15:35.850Z,1.52
2023-02-13T03:18:26.468Z,1.73
2023-02-13T03:21:16.640Z,1.40
2023-02-13T03:23:48.491Z,1.33
2023-02-13T03:26:19.966Z,1.15
2023-02-13T03:29:10.258Z,1.67
2023-02-13T03:31:41.773Z,1.45
2023-02-13T03:34:13.650Z,2.05
2023-02-13T03:37:04.055Z,1.77
2023-02-13T03:39:35.901Z,1.05
2023-02-13T03:42:07.381Z,1.85
2023-02-13T03:44:39.254Z,2.30
2023-02-13T03:47:10.765Z,1.83
2023-02-13T03:50:01.323Z,2.33
2023-02-13T03:52:32.819Z,1.27
2023-02-13T03:55:23.348Z,1.80
2023-02-13T03:58:13.544Z,2.08
2023-02-13T04:00:45.372Z,1.75
2023-02-13T04:03:16.900Z,1.60
2023-02-13T04:05:48.729Z,2.13
2023-02-13T04:08:20.227Z,1.92
2023-02-13T04:10:52.137Z,1.77
2023-02-13T04:13:23.617Z,2.08
2023-02-13T04:15:55.567Z,2.05
2023-02-13T04:18:27.058Z,2.30
2023-02-13T04:20:58.941Z,2.08
2023-02-13T04:23:30.732Z,2.40
2023-02-13T04:26:02.685Z,2.00
2023-02-13T04:28:34.252Z,1.80
2023-02-13T04:31:06.399Z,2.33
2023-02-13T04:33:38.062Z,2.00
2023-02-13T04:36:09.585Z,1.00
2023-02-13T04:38:41.056Z,2.63
2023-02-13T04:41:12.863Z,1.63
2023-02-13T04:43:44.473Z,1.93
2023-02-13T04:46:15.993Z,2.00
2023-02-13T04:48:47.475Z,1.77
2023-02-13T04:51:19.005Z,2.40
2023-02-13T04:53:50.484Z,2.22
2023-02-13T04:56:22.274Z,2.13
2023-02-13T04:58:53.754Z,2.20
2023-02-13T05:01:25.674Z,1.65
2023-02-13T05:03:57.545Z,2.00
2023-02-13T05:06:29.039Z,1.92
2023-02-13T05:09:00.741Z,1.42
2023-02-13T05:11:32.240Z,1.60
2023-02-13T05:14:04.104Z,2.08
2023-02-13T05:16:35.744Z,1.60
2023-02-13T05:19:07.505Z,1.30
2023-02-13T05:21:57.979Z,2.50
2023-02-13T05:24:29.854Z,1.33
2023-02-13T05:27:01.415Z,1.38
2023-02-13T05:29:32.956Z,1.02
2023-02-13T05:32:04.558Z,1.73
2023-02-13T05:34:36.461Z,1.88
2023-02-13T05:37:07.960Z,1.75
2023-02-13T05:39:39.500Z,1.88
2023-02-13T05:42:11.037Z,1.42
2023-02-13T05:44:42.935Z,1.35
2023-02-13T05:47:14.481Z,1.08
2023-02-13T05:49:46.006Z,1.60
2023-02-13T05:52:17.503Z,1.75
2023-02-13T05:54:49.433Z,1.67
2023-02-13T05:57:20.906Z,0.98
2023-02-13T05:59:52.764Z,1.40
2023-02-13T06:02:24.317Z,1.05
2023-02-13T06:04:56.178Z,1.25
2023-02-13T06:07:27.699Z,1.58
2023-02-13T06:09:59.819Z,1.70
2023-02-13T06:12:31.281Z,1.23
2023-02-13T06:15:03.118Z,1.73
2023-02-13T06:17:34.622Z,1.08
2023-02-13T06:20:06.417Z,1.13
2023-02-13T06:22:37.892Z,1.60
2023-02-13T06:25:09.774Z,1.58
2023-02-13T06:27:41.266Z,1.23
2023-02-13T06:30:13.048Z,1.58
2023-02-13T06:32:44.565Z,1.63
2023-02-13T06:35:16.088Z,1.85
2023-02-13T06:37:48.666Z,1.48
2023-02-13T06:40:20.267Z,1.27
2023-02-13T06:42:51.739Z,1.35
2023-02-13T06:45:23.244Z,1.75
2023-02-13T06:47:54.767Z,1.38
2023-02-13T06:50:26.822Z,1.65
2023-02-13T06:52:58.354Z,1.05
2023-02-13T06:55:29.908Z,1.65
2023-02-13T06:58:01.374Z,2.08
2023-02-13T07:00:33.006Z,1.90
2023-02-13T07:03:04.680Z,1.83
2023-02-13T07:05:36.236Z,1.70
2023-02-13T07:08:07.755Z,1.52
2023-02-13T07:10:39.323Z,2.10
2023-02-13T07:13:11.060Z,2.35
2023-02-13T07:15:42.664Z,2.45
2023-02-13T07:18:14.159Z,2.55
2023-02-13T07:20:46.041Z,2.10
2023-02-13T07:23:17.533Z,2.05
2023-02-13T07:25:49.350Z,2.25
2023-02-13T07:28:20.849Z,2.45
2023-02-13T07:30:52.434Z,2.13
2023-02-13T07:33:27.821Z,2.13
2023-02-13T07:35:59.321Z,1.38
2023-02-13T07:38:30.830Z,2.35
2023-02-13T07:41:02.337Z,2.10
2023-02-13T07:43:33.802Z,2.10
2023-02-13T07:46:05.743Z,2.33
2023-02-13T07:48:37.247Z,2.73
2023-02-13T07:51:08.736Z,2.53
2023-02-13T07:53:40.233Z,2.47
2023-02-13T07:59:08.652Z,2.80
2023-02-13T08:07:52.267Z,1.98
2023-02-13T08:10:43.186Z,2.42
2023-02-13T08:13:17.372Z,2.45
2023-02-13T08:16:04.040Z,2.35
2023-02-13T08:18:35.627Z,2.75
2023-02-13T08:27:26.979Z,1.63
2023-02-13T08:39:28.986Z,2.10
2023-02-13T08:42:04.901Z,1.95
2023-02-13T08:44:37.371Z,2.08
2023-02-13T08:47:14.194Z,2.08
2023-02-13T08:49:48.891Z,2.20
2023-02-13T08:55:38.202Z,2.15
2023-02-13T09:04:36.783Z,1.50
2023-02-13T09:07:11.265Z,1.70
2023-02-13T09:10:10.517Z,1.95
2023-02-13T09:22:24.028Z,1.65
2023-02-13T09:31:04.746Z,1.63
2023-02-13T09:33:51.952Z,2.00
2023-02-13T09:36:30.898Z,1.90
2023-02-13T09:39:13.585Z,2.10
2023-02-13T09:45:24.809Z,1.92
2023-02-13T09:47:56.318Z,1.65
2023-02-13T09:50:27.978Z,2.00
2023-02-13T09:52:59.596Z,2.17
2023-02-13T09:55:31.120Z,1.42
2023-02-13T09:58:02.643Z,1.80
2023-02-13T10:00:34.186Z,1.63
2023-02-13T10:03:05.679Z,1.80
2023-02-13T10:05:37.535Z,1.83
2023-02-13T10:08:09.160Z,1.90
2023-02-13T10:10:40.666Z,2.72
2023-02-13T10:13:12.161Z,1.35
2023-02-13T10:15:43.707Z,1.63
2023-02-13T10:18:15.218Z,2.33
2023-02-13T10:20:47.121Z,2.20
2023-02-13T10:23:18.649Z,2.05
2023-02-13T10:25:50.216Z,2.20
2023-02-13T10:28:21.761Z,2.20
2023-02-13T10:30:53.546Z,1.70
2023-02-13T10:33:25.163Z,2.15
2023-02-13T10:35:56.929Z,1.88
2023-02-13T10:38:28.567Z,1.85
2023-02-13T10:41:00.117Z,2.15
2023-02-13T10:43:31.638Z,2.00
2023-02-13T10:46:03.346Z,1.80
2023-02-13T10:48:34.967Z,1.65
2023-02-13T10:51:06.803Z,2.00
2023-02-13T10:53:38.305Z,1.90
2023-02-13T10:56:10.094Z,1.80
2023-02-13T10:58:41.657Z,1.55
2023-02-13T11:01:13.191Z,1.25
2023-02-13T11:03:47.843Z,1.40
2023-02-13T11:06:20.215Z,2.03
2023-02-13T11:08:51.715Z,1.77
2023-02-13T11:11:23.217Z,1.60
2023-02-13T11:13:54.706Z,1.55
2023-02-13T11:16:26.540Z,1.50
2023-02-13T11:18:58.064Z,1.50
2023-02-13T11:21:29.922Z,1.80
2023-02-13T11:24:01.402Z,2.05
2023-02-13T11:26:33.545Z,1.83
2023-02-13T11:29:05.106Z,1.75
2023-02-13T11:31:37.314Z,1.58
2023-02-13T11:34:08.924Z,2.00
2023-02-13T11:36:40.761Z,1.83
2023-02-13T11:39:12.266Z,1.80
2023-02-13T11:41:43.772Z,2.38
2023-02-13T11:44:15.267Z,1.92
2023-02-13T11:46:46.898Z,2.00
2023-02-13T11:49:18.415Z,2.45
2023-02-13T11:51:50.421Z,2.38
2023-02-13T11:54:21.899Z,2.47
2023-02-13T11:57:08.560Z,2.30
2023-02-13T11:59:40.142Z,2.35
2023-02-13T12:02:11.762Z,2.17
2023-02-13T12:07:35.270Z,2.15
2023-02-13T12:10:06.767Z,1.75
2023-02-13T12:12:38.842Z,1.95
2023-02-13T12:15:10.350Z,1.60
2023-02-13T12:17:42.157Z,1.95
2023-02-13T12:20:14.488Z,1.88
2023-02-13T12:22:46.421Z,2.10
2023-02-13T12:25:17.907Z,2.05
2023-02-13T12:27:49.884Z,1.98
2023-02-13T12:30:21.717Z,2.35
2023-02-13T12:32:53.319Z,2.38
2023-02-13T12:38:34.619Z,2.03
2023-02-13T12:41:06.123Z,2.15
2023-02-13T12:43:37.596Z,2.58
2023-02-13T12:46:09.457Z,2.53
2023-02-13T12:48:40.987Z,2.30
2023-02-13T12:51:12.482Z,2.40
2023-02-13T12:53:43.966Z,2.50
2023-02-13T12:56:15.475Z,2.17
2023-02-13T12:58:47.032Z,2.50
2023-02-13T13:01:18.708Z,2.47
2023-02-13T13:03:50.256Z,2.88
2023-02-13T13:06:22.593Z,2.20
2023-02-13T13:08:54.108Z,1.98
2023-02-13T13:11:25.661Z,2.88
2023-02-13T13:13:58.892Z,2.92
2023-02-13T13:16:30.740Z,2.65
2023-02-13T13:19:02.325Z,2.88
2023-02-13T13:21:34.126Z,2.83
2023-02-13T13:24:05.609Z,3.08
2023-02-13T13:26:37.580Z,2.72
2023-02-13T13:29:09.124Z,2.47
2023-02-13T13:31:40.812Z,2.90
2023-02-13T13:34:12.452Z,2.50
2023-02-13T13:36:43.955Z,2.15
2023-02-13T13:39:15.452Z,3.00
2023-02-13T13:41:47.305Z,2.20
2023-02-13T13:44:18.845Z,2.42
2023-02-13T13:46:50.832Z,2.50
2023-02-13T13:49:22.310Z,3.07
2023-02-13T13:51:54.358Z,2.55
2023-02-13T13:54:25.864Z,2.83
2023-02-13T13:57:01.928Z,2.90
2023-02-13T13:59:33.473Z,2.05
2023-02-13T14:02:05.056Z,2.58
2023-02-13T14:04:36.711Z,2.38
2023-02-13T14:07:08.337Z,2.70
2023-02-13T14:09:39.868Z,2.63
2023-02-13T14:12:11.392Z,2.28
2023-02-13T14:14:42.896Z,2.65
2023-02-13T14:17:14.465Z,3.22
2023-02-13T14:19:45.954Z,2.67
2023-02-13T14:22:17.441Z,2.58
2023-02-13T14:24:48.974Z,2.17
2023-02-13T14:27:20.592Z,2.80
2023-02-13T14:29:52.096Z,2.70
2023-02-13T14:32:23.633Z,2.45
2023-02-13T14:34:55.176Z,2.90
2023-02-13T14:37:34.904Z,3.10
2023-02-13T14:40:06.385Z,2.92
2023-02-13T14:42:38.195Z,2.08
2023-02-13T14:45:09.717Z,2.53
2023-02-13T14:47:42.997Z,3.38
2023-02-13T14:50:14.500Z,2.78
2023-02-13T14:52:46.290Z,2.75
2023-02-13T14:55:17.806Z,3.00
2023-02-13T14:57:49.318Z,2.80
2023-02-13T15:00:20.844Z,2.00
2023-02-13T15:02:52.368Z,3.15
2023-02-13T15:05:23.849Z,3.35
2023-02-13T15:07:55.428Z,2.53
2023-02-13T15:10:27.167Z,3.13
2023-02-13T15:12:59.041Z,2.80
2023-02-13T15:15:30.901Z,2.90
2023-02-13T15:18:02.766Z,2.70
2023-02-13T15:20:34.256Z,3.50
2023-02-13T15:23:09.891Z,2.60
2023-02-13T15:25:41.364Z,2.65
2023-02-13T15:28:12.871Z,2.70
2023-02-13T15:30:44.360Z,3.05
2023-02-13T15:33:15.881Z,2.83
2023-02-13T15:35:47.424Z,2.70
2023-02-13T15:38:18.975Z,3.47
2023-02-13T15:40:50.517Z,2.88
2023-02-13T15:43:22.521Z,2.85
2023-02-13T15:45:54.059Z,2.33
2023-02-13T15:48:25.714Z,3.05
2023-02-13T15:50:57.443Z,2.53
2023-02-13T15:53:30.302Z,2.20
2023-02-13T15:56:01.839Z,2.38
2023-02-13T15:58:33.510Z,2.03
2023-02-13T16:01:05.116Z,2.45
2023-02-13T16:03:36.961Z,2.38
2023-02-13T16:06:08.453Z,2.85
2023-02-13T16:08:44.228Z,3.42
2023-02-13T16:11:15.784Z,2.47
2023-02-13T16:13:48.576Z,2.28
2023-02-13T16:16:20.262Z,3.50
2023-02-13T16:18:52.029Z,2.58
2023-02-13T16:21:23.573Z,2.90
2023-02-13T16:23:55.048Z,3.22
2023-02-13T16:26:26.557Z,2.92
2023-02-13T16:28:58.354Z,2.83
2023-02-13T16:31:29.928Z,2.58
2023-02-13T16:34:02.727Z,3.22
2023-02-13T16:36:34.282Z,2.28
2023-02-13T16:39:06.059Z,2.78
2023-02-13T16:41:37.547Z,2.70
2023-02-13T16:44:09.378Z,2.25
2023-02-13T16:46:40.901Z,3.20
2023-02-13T16:49:12.591Z,2.35
2023-02-13T16:51:44.143Z,2.53
2023-02-13T16:54:15.707Z,2.72
2023-02-13T16:56:47.243Z,3.58
2023-02-13T16:59:19.915Z,2.88
2023-02-13T17:01:51.469Z,2.85
2023-02-13T17:04:23.431Z,2.75
2023-02-13T17:06:55.224Z,2.57
2023-02-13T17:09:27.073Z,2.28
2023-02-13T17:11:58.618Z,2.30
2023-02-13T17:14:30.391Z,3.83
2023-02-13T17:17:01.903Z,2.53
2023-02-13T17:19:33.602Z,2.42
2023-02-13T17:22:05.446Z,2.95
2023-02-13T17:24:37.419Z,2.50
2023-02-13T17:27:08.973Z,2.60
2023-02-13T17:29:40.903Z,2.42
2023-02-13T17:32:12.591Z,2.92
2023-02-13T17:34:46.834Z,2.47
2023-02-13T17:37:18.650Z,3.67
2023-02-13T17:39:50.204Z,3.38
2023-02-13T17:42:21.725Z,3.38
2023-02-13T17:44:53.205Z,3.00
2023-02-13T17:50:17.651Z,4.00
2023-02-13T17:52:49.959Z,2.60
2023-02-13T17:55:21.553Z,3.83
2023-02-13T17:57:53.384Z,2.58
2023-02-13T18:00:24.862Z,2.97
2023-02-13T18:02:56.631Z,3.70
2023-02-13T18:05:28.250Z,2.72
2023-02-13T18:08:02.209Z,3.13
2023-02-13T18:10:33.693Z,3.65
2023-02-13T18:13:05.660Z,3.50
2023-02-13T18:15:37.209Z,3.13
2023-02-13T18:18:09.207Z,2.95
2023-02-13T18:20:40.766Z,3.50
2023-02-13T18:23:13.874Z,3.17
2023-02-13T18:25:45.461Z,2.47
2023-02-13T18:28:16.943Z,2.55
2023-02-13T18:30:48.580Z,2.58
2023-02-13T18:33:20.120Z,3.00
2023-02-13T18:35:51.684Z,2.80
2023-02-13T18:38:23.521Z,3.33
2023-02-13T18:40:55.038Z,2.80
2023-02-13T18:43:26.727Z,3.28
2023-02-13T18:45:58.272Z,3.25
2023-02-13T18:48:31.327Z,2.85
2023-02-13T18:51:02.860Z,2.60
2023-02-13T18:53:34.718Z,3.40
2023-02-13T18:56:06.335Z,2.85
2023-02-13T18:58:38.164Z,2.80
2023-02-13T19:01:09.878Z,3.00
2023-02-13T19:03:41.624Z,3.28
2023-02-13T19:06:13.153Z,4.47
2023-02-13T19:08:45.123Z,4.05
2023-02-13T19:11:16.634Z,4.43
2023-02-13T19:13:48.397Z,3.70
2023-02-13T19:16:19.909Z,2.85
2023-02-13T19:18:53.592Z,3.00
2023-02-13T19:21:25.094Z,3.53
2023-02-13T19:23:56.729Z,3.53
2023-02-13T19:26:28.256Z,4.10
2023-02-13T19:29:00.113Z,3.45
2023-02-13T19:31:31.678Z,2.63
2023-02-13T19:34:08.015Z,2.63
2023-02-13T19:36:39.859Z,4.40
2023-02-13T19:39:11.715Z,4.25
2023-02-13T19:41:44.146Z,2.53
2023-02-13T19:44:15.995Z,2.90
2023-02-13T19:46:47.571Z,3.60
2023-02-13T19:49:21.007Z,3.75
2023-02-13T19:51:54.962Z,2.60
2023-02-13T19:54:26.544Z,4.20
2023-02-13T19:57:01.460Z,3.65
2023-02-13T19:59:33.301Z,3.33
2023-02-13T20:02:04.857Z,3.22
2023-02-13T20:04:36.816Z,3.05
2023-02-13T20:07:08.462Z,3.33
2023-02-13T20:09:40.557Z,3.25
2023-02-13T20:12:12.081Z,3.65
2023-02-13T20:14:43.944Z,3.75
2023-02-13T20:17:15.435Z,3.38
2023-02-13T20:19:47.938Z,3.42
2023-02-13T20:22:19.505Z,4.00
2023-02-13T20:24:51.384Z,2.80
2023-02-13T20:27:22.893Z,3.83
2023-02-13T20:29:59.113Z,4.55
2023-02-13T20:32:38.993Z,3.25
2023-02-13T20:35:10.808Z,3.60
2023-02-13T20:37:42.870Z,5.18
2023-02-13T20:40:14.442Z,4.40
2023-02-13T20:42:45.946Z,3.17
2023-02-13T20:45:17.540Z,3.45
2023-02-13T20:47:49.696Z,3.92
2023-02-13T20:50:21.443Z,3.90
2023-02-13T20:52:52.992Z,3.65
2023-02-13T20:55:25.018Z,3.35
2023-02-13T20:57:56.523Z,3.17
2023-02-13T21:00:28.411Z,3.55
2023-02-13T21:03:00.145Z,2.73
2023-02-13T21:05:32.060Z,3.40
2023-02-13T21:08:03.635Z,3.60
2023-02-13T21:10:35.499Z,4.20
2023-02-13T21:13:07.005Z,3.22
2023-02-13T21:15:38.801Z,3.70
2023-02-13T21:18:10.422Z,3.92
2023-02-13T21:20:42.286Z,2.92
2023-02-13T21:23:13.783Z,3.92
2023-02-13T21:25:45.702Z,4.18
2023-02-13T21:28:17.226Z,4.33
2023-02-13T21:30:49.140Z,4.07
2023-02-13T21:33:20.657Z,3.70
2023-02-13T21:35:52.514Z,4.38
2023-02-13T21:38:24.331Z,4.43
2023-02-13T21:40:56.480Z,4.43
2023-02-13T21:43:28.162Z,3.97
2023-02-13T21:46:00.067Z,3.97
2023-02-13T21:48:31.655Z,4.23
2023-02-13T21:51:03.575Z,3.78
2023-02-13T21:53:35.097Z,4.23
2023-02-13T21:56:06.900Z,4.47
2023-02-13T21:58:38.406Z,3.10
2023-02-13T22:01:17.438Z,4.00
2023-02-13T22:03:59.966Z,3.78
2023-02-13T22:06:31.968Z,4.15
2023-02-13T22:09:03.504Z,4.85
2023-02-13T22:11:35.036Z,4.38
2023-02-13T22:14:07.890Z,5.47
2023-02-13T22:19:11.113Z,4.47
2023-02-13T22:21:42.636Z,5.13
2023-02-13T22:24:14.197Z,4.30
2023-02-13T22:26:45.724Z,4.28
2023-02-13T22:29:18.516Z,2.53
2023-02-13T22:34:22.166Z,4.45
2023-02-13T22:36:53.699Z,3.55
2023-02-13T22:39:25.610Z,3.67
2023-02-13T22:41:57.125Z,4.37
2023-02-13T22:44:28.910Z,4.32
2023-02-13T22:47:00.459Z,3.58
2023-02-13T22:49:32.269Z,5.10
2023-02-13T22:52:03.820Z,3.47
2023-02-13T22:54:35.620Z,4.68
2023-02-13T22:57:07.192Z,4.78
2023-02-13T22:59:40.269Z,4.07
2023-02-13T23:02:11.988Z,4.95
2023-02-13T23:04:44.116Z,4.43
2023-02-13T23:07:18.252Z,3.78
2023-02-13T23:09:50.067Z,4.25
2023-02-13T23:12:37.070Z,4.15
2023-02-13T23:15:08.817Z,3.53
2023-02-13T23:17:59.120Z,4.40
2023-02-13T23:20:30.634Z,3.72
2023-02-13T23:23:04.752Z,4.35
2023-02-13T23:25:36.722Z,4.60
2023-02-13T23:28:08.307Z,4.53
2023-02-13T23:30:40.090Z,3.88
2023-02-13T23:33:11.629Z,4.57
2023-02-13T23:35:43.607Z,4.13
2023-02-13T23:38:15.112Z,4.47
2023-02-13T23:40:46.983Z,4.55
2023-02-13T23:43:18.504Z,4.38
2023-02-13T23:45:50.446Z,3.85
2023-02-13T23:48:22.000Z,6.03
2023-02-13T23:50:53.956Z,3.50
2023-02-13T23:53:25.635Z,4.43
2023-02-13T23:55:57.541Z,4.63
2023-02-13T23:58:29.063Z,3.50
